Airfield :
LOGIN :

Register | Disclaimer

   EN    FR    IT 

 










Legend :    VFR   Marginal VFR   IFR   Intensive IFR   Very Intensive IFR
Visi :
Ceiling :
>= 8 km
>= 3000ft
5 to 8 km
1000 to 3000 ft
1500m to 5 km
500 to 1000 ft
800 to 1500m
200 to 500 ft
< 800m
< 200 ft
Symbols :   Thunderstorms  Fog  Heavy snow  Heavy precipitations  Wind > 20 kt
SIGMETs :     Misc.  Thunderstorms  Icing  Turbulence  Mountain Waves  Volcanic Ashes







- Airport Elevation : 1306 ft
- IATA code : ACH


LSZR - Alten Rhein

CURRENT METAR :
  • 181620Z 26005KT 230V310 9999 SCT150CB 26/11 Q1013 NOSIG RMK M

EXPIRED METARs :
  • 181550Z 27006KT 240V320 9999 SCT045CB 27/14 Q1014 NOSIG RMK L
  • 181520Z 27006KT 240V320 9999 SCT045CB 27/14 Q1014 NOSIG RMK L
  • 181450Z VRB02KT 9999 FEW040 25/09 Q1014 NOSIG RMK K
  • 181420Z VRB02KT 9999 FEW040 25/09 Q1014 NOSIG RMK K
  • 181350Z 31003KT 270V360 9999 FEW045 27/05 Q1015 NOSIG RMK J

TAF TAF LSZR
Valid from the 18 at 15:00 until the 19 at 00:00 UTC


181425Z 1815/1824 VRB03KT 9999 FEW050
PROB40 1816/1821 18015G35KT -TSRA SCT060CB
ATIS : +41 71 858 51 66
No reported NOTAMs for that airfield.



MET'MAP, your aeronautical weather chart ! - Copyright ORBIFLY December 2007 - Disclaimer

ORBIFLY MET'MAP TEAM :

Programming & Development : Alexandra Zaïnal
Concept & Development : Baudouin d'Aumeries
Co-Development & Prog : Marc-Olivier Méhu
Technical & hardware support : Manuel Goepfert

Contact : metmap@orbifly.com




SOURCES & CREDITS :

   NOAA